sensor_id;sensor_type;location;lat;lon;timestamp;P1;durP1;ratioP1;P2;durP2;ratioP2
1811;SDS011;904;47.814;11.134;2023-03-12T00:01:23;4.90;;;3.30;;
1811;SDS011;904;47.814;11.134;2023-03-12T00:03:53;6.97;;;4.95;;
1811;SDS011;904;47.814;11.134;2023-03-12T00:06:26;7.38;;;4.18;;
1811;SDS011;904;47.814;11.134;2023-03-12T00:08:55;5.80;;;3.55;;
1811;SDS011;904;47.814;11.134;2023-03-12T00:11:28;3.95;;;3.00;;
1811;SDS011;904;47.814;11.134;2023-03-12T00:14:00;3.90;;;2.78;;
1811;SDS011;904;47.814;11.134;2023-03-12T00:16:32;4.82;;;3.22;;
1811;SDS011;904;47.814;11.134;2023-03-12T00:19:01;5.10;;;3.10;;
1811;SDS011;904;47.814;11.134;2023-03-12T00:21:33;9.27;;;4.45;;
1811;SDS011;904;47.814;11.134;2023-03-12T00:24:03;4.30;;;3.38;;
1811;SDS011;904;47.814;11.134;2023-03-12T00:26:31;5.80;;;3.20;;
1811;SDS011;904;47.814;11.134;2023-03-12T00:29:04;3.13;;;2.55;;
1811;SDS011;904;47.814;11.134;2023-03-12T00:31:33;5.55;;;3.33;;
1811;SDS011;904;47.814;11.134;2023-03-12T00:34:00;5.30;;;3.22;;
1811;SDS011;904;47.814;11.134;2023-03-12T00:36:33;8.05;;;3.78;;
1811;SDS011;904;47.814;11.134;2023-03-12T00:39:00;4.65;;;2.72;;
1811;SDS011;904;47.814;11.134;2023-03-12T00:41:28;4.30;;;2.75;;
1811;SDS011;904;47.814;11.134;2023-03-12T00:43:57;3.80;;;2.90;;
1811;SDS011;904;47.814;11.134;2023-03-12T00:46:26;2.85;;;2.30;;
1811;SDS011;904;47.814;11.134;2023-03-12T00:48:59;5.13;;;2.28;;
1811;SDS011;904;47.814;11.134;2023-03-12T00:51:28;4.10;;;2.70;;
1811;SDS011;904;47.814;11.134;2023-03-12T00:53:55;5.95;;;2.50;;
1811;SDS011;904;47.814;11.134;2023-03-12T00:56:24;3.65;;;2.38;;
1811;SDS011;904;47.814;11.134;2023-03-12T00:58:51;5.65;;;3.08;;
1811;SDS011;904;47.814;11.134;2023-03-12T01:01:20;4.95;;;2.58;;
1811;SDS011;904;47.814;11.134;2023-03-12T01:03:51;5.25;;;2.70;;
1811;SDS011;904;47.814;11.134;2023-03-12T01:09:03;7.47;;;4.00;;
1811;SDS011;904;47.814;11.134;2023-03-12T01:11:31;6.97;;;4.45;;
1811;SDS011;904;47.814;11.134;2023-03-12T01:14:05;5.35;;;3.55;;
1811;SDS011;904;47.814;11.134;2023-03-12T01:16:39;6.47;;;3.65;;
1811;SDS011;904;47.814;11.134;2023-03-12T01:19:11;5.90;;;3.80;;
1811;SDS011;904;47.814;11.134;2023-03-12T01:21:40;6.82;;;3.65;;
1811;SDS011;904;47.814;11.134;2023-03-12T01:24:15;7.07;;;4.50;;
1811;SDS011;904;47.814;11.134;2023-03-12T01:26:44;5.80;;;4.20;;
1811;SDS011;904;47.814;11.134;2023-03-12T01:29:16;6.68;;;3.97;;
1811;SDS011;904;47.814;11.134;2023-03-12T01:31:44;4.47;;;3.33;;
1811;SDS011;904;47.814;11.134;2023-03-12T01:34:13;4.45;;;2.85;;
1811;SDS011;904;47.814;11.134;2023-03-12T01:36:44;4.65;;;2.92;;
1811;SDS011;904;47.814;11.134;2023-03-12T01:39:12;8.00;;;3.53;;
1811;SDS011;904;47.814;11.134;2023-03-12T01:41:44;8.38;;;3.38;;
1811;SDS011;904;47.814;11.134;2023-03-12T01:44:14;6.45;;;3.65;;
1811;SDS011;904;47.814;11.134;2023-03-12T01:46:43;4.15;;;2.80;;
1811;SDS011;904;47.814;11.134;2023-03-12T01:49:13;4.28;;;2.58;;
1811;SDS011;904;47.814;11.134;2023-03-12T01:51:44;7.10;;;3.58;;
1811;SDS011;904;47.814;11.134;2023-03-12T01:54:19;5.15;;;3.03;;
1811;SDS011;904;47.814;11.134;2023-03-12T01:56:50;3.60;;;2.85;;
1811;SDS011;904;47.814;11.134;2023-03-12T01:59:23;5.38;;;3.53;;
1811;SDS011;904;47.814;11.134;2023-03-12T02:01:53;6.50;;;4.07;;
1811;SDS011;904;47.814;11.134;2023-03-12T02:04:29;6.78;;;3.17;;
1811;SDS011;904;47.814;11.134;2023-03-12T02:07:04;6.55;;;4.22;;
1811;SDS011;904;47.814;11.134;2023-03-12T02:09:39;9.25;;;3.05;;
1811;SDS011;904;47.814;11.134;2023-03-12T02:12:10;5.45;;;3.25;;
1811;SDS011;904;47.814;11.134;2023-03-12T02:14:39;7.25;;;3.45;;
1811;SDS011;904;47.814;11.134;2023-03-12T02:17:06;6.22;;;3.08;;
1811;SDS011;904;47.814;11.134;2023-03-12T02:19:36;3.63;;;2.70;;
1811;SDS011;904;47.814;11.134;2023-03-12T02:22:15;4.95;;;3.10;;
1811;SDS011;904;47.814;11.134;2023-03-12T02:24:51;5.00;;;3.25;;
1811;SDS011;904;47.814;11.134;2023-03-12T02:27:29;4.43;;;3.30;;
1811;SDS011;904;47.814;11.134;2023-03-12T02:29:58;6.60;;;3.33;;
1811;SDS011;904;47.814;11.134;2023-03-12T02:32:27;5.38;;;3.20;;
1811;SDS011;904;47.814;11.134;2023-03-12T02:35:01;5.13;;;3.55;;
1811;SDS011;904;47.814;11.134;2023-03-12T02:37:30;4.90;;;3.20;;
1811;SDS011;904;47.814;11.134;2023-03-12T02:40:00;4.95;;;3.30;;
1811;SDS011;904;47.814;11.134;2023-03-12T02:42:32;4.65;;;3.05;;
1811;SDS011;904;47.814;11.134;2023-03-12T02:45:00;8.77;;;3.40;;
1811;SDS011;904;47.814;11.134;2023-03-12T02:47:31;5.60;;;3.70;;
1811;SDS011;904;47.814;11.134;2023-03-12T02:50:01;5.75;;;3.47;;
1811;SDS011;904;47.814;11.134;2023-03-12T02:52:30;6.13;;;3.83;;
1811;SDS011;904;47.814;11.134;2023-03-12T02:55:00;5.85;;;4.10;;
1811;SDS011;904;47.814;11.134;2023-03-12T02:57:31;4.75;;;3.70;;
1811;SDS011;904;47.814;11.134;2023-03-12T03:00:04;11.10;;;4.50;;
1811;SDS011;904;47.814;11.134;2023-03-12T03:02:36;5.35;;;3.92;;
1811;SDS011;904;47.814;11.134;2023-03-12T03:05:08;8.75;;;4.15;;
1811;SDS011;904;47.814;11.134;2023-03-12T03:07:42;10.45;;;5.05;;
1811;SDS011;904;47.814;11.134;2023-03-12T03:10:09;4.88;;;3.83;;
1811;SDS011;904;47.814;11.134;2023-03-12T03:12:38;8.80;;;4.53;;
1811;SDS011;904;47.814;11.134;2023-03-12T03:15:05;9.32;;;5.03;;
1811;SDS011;904;47.814;11.134;2023-03-12T03:17:33;7.38;;;4.72;;
1811;SDS011;904;47.814;11.134;2023-03-12T03:20:01;8.13;;;5.10;;
1811;SDS011;904;47.814;11.134;2023-03-12T03:22:36;7.15;;;4.90;;
1811;SDS011;904;47.814;11.134;2023-03-12T03:25:07;6.82;;;3.92;;
1811;SDS011;904;47.814;11.134;2023-03-12T03:27:37;7.15;;;4.40;;
1811;SDS011;904;47.814;11.134;2023-03-12T03:30:07;5.13;;;4.60;;
1811;SDS011;904;47.814;11.134;2023-03-12T03:32:36;5.50;;;4.47;;
1811;SDS011;904;47.814;11.134;2023-03-12T03:35:06;7.93;;;4.68;;
1811;SDS011;904;47.814;11.134;2023-03-12T03:37:34;6.25;;;4.60;;
1811;SDS011;904;47.814;11.134;2023-03-12T03:40:11;7.85;;;4.43;;
1811;SDS011;904;47.814;11.134;2023-03-12T03:42:46;8.43;;;4.95;;
1811;SDS011;904;47.814;11.134;2023-03-12T03:45:13;8.18;;;4.10;;
1811;SDS011;904;47.814;11.134;2023-03-12T03:47:45;7.45;;;4.95;;
1811;SDS011;904;47.814;11.134;2023-03-12T03:50:14;12.00;;;5.50;;
1811;SDS011;904;47.814;11.134;2023-03-12T03:52:43;9.10;;;5.35;;
1811;SDS011;904;47.814;11.134;2023-03-12T03:55:10;12.00;;;4.80;;
1811;SDS011;904;47.814;11.134;2023-03-12T03:57:48;9.93;;;5.97;;
1811;SDS011;904;47.814;11.134;2023-03-12T04:00:16;18.15;;;6.82;;
1811;SDS011;904;47.814;11.134;2023-03-12T04:02:45;11.63;;;5.70;;
1811;SDS011;904;47.814;11.134;2023-03-12T04:05:14;13.38;;;6.32;;
1811;SDS011;904;47.814;11.134;2023-03-12T04:07:43;8.82;;;5.13;;
1811;SDS011;904;47.814;11.134;2023-03-12T04:10:13;7.13;;;4.78;;
1811;SDS011;904;47.814;11.134;2023-03-12T04:12:40;8.52;;;4.20;;
1811;SDS011;904;47.814;11.134;2023-03-12T04:15:13;5.32;;;3.40;;
1811;SDS011;904;47.814;11.134;2023-03-12T04:17:46;6.68;;;4.15;;
1811;SDS011;904;47.814;11.134;2023-03-12T04:20:18;6.38;;;3.58;;
1811;SDS011;904;47.814;11.134;2023-03-12T04:22:45;6.03;;;4.10;;
1811;SDS011;904;47.814;11.134;2023-03-12T04:25:12;20.02;;;5.05;;
1811;SDS011;904;47.814;11.134;2023-03-12T04:27:39;8.50;;;4.20;;
1811;SDS011;904;47.814;11.134;2023-03-12T04:30:07;7.55;;;4.50;;
1811;SDS011;904;47.814;11.134;2023-03-12T04:32:37;6.30;;;5.20;;
1811;SDS011;904;47.814;11.134;2023-03-12T04:35:04;6.03;;;4.50;;
1811;SDS011;904;47.814;11.134;2023-03-12T04:37:34;5.85;;;4.53;;
1811;SDS011;904;47.814;11.134;2023-03-12T04:40:02;7.70;;;5.28;;
1811;SDS011;904;47.814;11.134;2023-03-12T04:42:32;8.48;;;5.13;;
1811;SDS011;904;47.814;11.134;2023-03-12T04:45:03;5.80;;;4.05;;
1811;SDS011;904;47.814;11.134;2023-03-12T04:47:32;3.92;;;3.40;;
1811;SDS011;904;47.814;11.134;2023-03-12T04:50:01;6.00;;;3.90;;
1811;SDS011;904;47.814;11.134;2023-03-12T04:52:28;5.80;;;4.38;;
1811;SDS011;904;47.814;11.134;2023-03-12T04:54:57;7.18;;;4.50;;
1811;SDS011;904;47.814;11.134;2023-03-12T04:57:24;7.38;;;4.65;;
1811;SDS011;904;47.814;11.134;2023-03-12T04:59:51;7.53;;;4.68;;
1811;SDS011;904;47.814;11.134;2023-03-12T05:02:23;6.78;;;5.32;;
1811;SDS011;904;47.814;11.134;2023-03-12T05:04:50;6.13;;;4.22;;
1811;SDS011;904;47.814;11.134;2023-03-12T05:07:22;5.25;;;3.70;;
1811;SDS011;904;47.814;11.134;2023-03-12T05:09:54;6.45;;;4.70;;
1811;SDS011;904;47.814;11.134;2023-03-12T05:12:41;5.63;;;3.72;;
1811;SDS011;904;47.814;11.134;2023-03-12T05:15:09;7.95;;;4.15;;
1811;SDS011;904;47.814;11.134;2023-03-12T05:17:38;6.65;;;4.50;;
1811;SDS011;904;47.814;11.134;2023-03-12T05:20:07;8.38;;;5.55;;
1811;SDS011;904;47.814;11.134;2023-03-12T05:22:36;7.68;;;5.13;;
1811;SDS011;904;47.814;11.134;2023-03-12T05:25:04;8.93;;;5.00;;
1811;SDS011;904;47.814;11.134;2023-03-12T05:27:32;6.35;;;4.40;;
1811;SDS011;904;47.814;11.134;2023-03-12T05:30:01;5.45;;;4.13;;
1811;SDS011;904;47.814;11.134;2023-03-12T05:32:29;6.45;;;4.43;;
1811;SDS011;904;47.814;11.134;2023-03-12T05:35:01;8.40;;;5.97;;
1811;SDS011;904;47.814;11.134;2023-03-12T05:37:28;8.07;;;5.72;;
1811;SDS011;904;47.814;11.134;2023-03-12T05:39:57;7.25;;;4.95;;
1811;SDS011;904;47.814;11.134;2023-03-12T05:42:29;6.68;;;5.00;;
1811;SDS011;904;47.814;11.134;2023-03-12T05:44:57;7.57;;;4.78;;
1811;SDS011;904;47.814;11.134;2023-03-12T05:47:29;6.47;;;4.35;;
1811;SDS011;904;47.814;11.134;2023-03-12T05:49:58;8.25;;;5.35;;
1811;SDS011;904;47.814;11.134;2023-03-12T05:52:34;12.77;;;6.80;;
1811;SDS011;904;47.814;11.134;2023-03-12T05:55:02;15.68;;;6.53;;
1811;SDS011;904;47.814;11.134;2023-03-12T05:57:30;10.38;;;5.85;;
1811;SDS011;904;47.814;11.134;2023-03-12T06:00:02;6.78;;;5.10;;
1811;SDS011;904;47.814;11.134;2023-03-12T06:02:38;7.28;;;5.55;;
1811;SDS011;904;47.814;11.134;2023-03-12T06:05:07;8.50;;;5.18;;
1811;SDS011;904;47.814;11.134;2023-03-12T06:07:44;6.88;;;5.40;;
1811;SDS011;904;47.814;11.134;2023-03-12T06:10:12;9.65;;;6.28;;
1811;SDS011;904;47.814;11.134;2023-03-12T06:12:44;8.95;;;7.03;;
1811;SDS011;904;47.814;11.134;2023-03-12T06:15:13;8.75;;;7.53;;
1811;SDS011;904;47.814;11.134;2023-03-12T06:17:40;9.52;;;7.32;;
1811;SDS011;904;47.814;11.134;2023-03-12T06:20:11;8.68;;;6.18;;
1811;SDS011;904;47.814;11.134;2023-03-12T06:22:40;12.85;;;6.82;;
1811;SDS011;904;47.814;11.134;2023-03-12T06:25:10;9.00;;;6.25;;
1811;SDS011;904;47.814;11.134;2023-03-12T06:27:39;10.15;;;6.75;;
1811;SDS011;904;47.814;11.134;2023-03-12T06:30:14;13.68;;;9.73;;
1811;SDS011;904;47.814;11.134;2023-03-12T06:32:42;14.75;;;8.38;;
1811;SDS011;904;47.814;11.134;2023-03-12T06:35:09;10.15;;;7.22;;
1811;SDS011;904;47.814;11.134;2023-03-12T06:37:36;13.35;;;8.10;;
1811;SDS011;904;47.814;11.134;2023-03-12T06:40:06;15.38;;;7.68;;
1811;SDS011;904;47.814;11.134;2023-03-12T06:42:36;15.55;;;7.68;;
1811;SDS011;904;47.814;11.134;2023-03-12T06:45:09;12.40;;;7.60;;
1811;SDS011;904;47.814;11.134;2023-03-12T06:47:38;11.73;;;8.05;;
1811;SDS011;904;47.814;11.134;2023-03-12T06:50:17;14.25;;;9.13;;
1811;SDS011;904;47.814;11.134;2023-03-12T06:52:52;15.50;;;9.02;;
1811;SDS011;904;47.814;11.134;2023-03-12T06:55:19;15.75;;;9.82;;
1811;SDS011;904;47.814;11.134;2023-03-12T06:57:48;18.02;;;11.57;;
1811;SDS011;904;47.814;11.134;2023-03-12T07:00:21;19.17;;;11.93;;
1811;SDS011;904;47.814;11.134;2023-03-12T07:02:54;14.55;;;9.48;;
1811;SDS011;904;47.814;11.134;2023-03-12T07:05:21;11.73;;;6.88;;
1811;SDS011;904;47.814;11.134;2023-03-12T07:07:49;24.20;;;15.50;;
1811;SDS011;904;47.814;11.134;2023-03-12T07:10:16;17.95;;;12.38;;
1811;SDS011;904;47.814;11.134;2023-03-12T07:12:44;17.60;;;10.82;;
1811;SDS011;904;47.814;11.134;2023-03-12T07:15:18;14.68;;;10.00;;
1811;SDS011;904;47.814;11.134;2023-03-12T07:17:53;11.75;;;7.55;;
1811;SDS011;904;47.814;11.134;2023-03-12T07:20:26;10.85;;;7.82;;
1811;SDS011;904;47.814;11.134;2023-03-12T07:22:53;9.77;;;8.75;;
1811;SDS011;904;47.814;11.134;2023-03-12T07:25:33;16.23;;;9.57;;
1811;SDS011;904;47.814;11.134;2023-03-12T07:28:04;10.35;;;8.50;;
1811;SDS011;904;47.814;11.134;2023-03-12T07:30:34;12.35;;;8.38;;
1811;SDS011;904;47.814;11.134;2023-03-12T07:33:06;11.95;;;8.07;;
1811;SDS011;904;47.814;11.134;2023-03-12T07:35:53;10.70;;;7.95;;
1811;SDS011;904;47.814;11.134;2023-03-12T07:38:28;10.57;;;8.00;;
1811;SDS011;904;47.814;11.134;2023-03-12T07:40:58;14.00;;;7.60;;
1811;SDS011;904;47.814;11.134;2023-03-12T07:43:26;8.15;;;6.35;;
1811;SDS011;904;47.814;11.134;2023-03-12T07:45:55;9.15;;;7.95;;
1811;SDS011;904;47.814;11.134;2023-03-12T07:48:22;12.25;;;8.43;;
1811;SDS011;904;47.814;11.134;2023-03-12T07:50:52;7.60;;;5.72;;
1811;SDS011;904;47.814;11.134;2023-03-12T07:53:19;6.75;;;6.05;;
1811;SDS011;904;47.814;11.134;2023-03-12T07:55:46;8.40;;;6.00;;
1811;SDS011;904;47.814;11.134;2023-03-12T07:58:14;7.47;;;4.78;;
1811;SDS011;904;47.814;11.134;2023-03-12T08:00:41;7.53;;;5.35;;
1811;SDS011;904;47.814;11.134;2023-03-12T08:03:10;24.27;;;11.93;;
1811;SDS011;904;47.814;11.134;2023-03-12T08:05:38;10.80;;;6.20;;
1811;SDS011;904;47.814;11.134;2023-03-12T08:08:06;10.23;;;6.65;;
1811;SDS011;904;47.814;11.134;2023-03-12T08:10:33;67.10;;;34.67;;
1811;SDS011;904;47.814;11.134;2023-03-12T08:13:01;17.10;;;10.10;;
1811;SDS011;904;47.814;11.134;2023-03-12T08:15:28;9.13;;;6.80;;
1811;SDS011;904;47.814;11.134;2023-03-12T08:17:55;9.13;;;5.80;;
1811;SDS011;904;47.814;11.134;2023-03-12T08:20:24;9.07;;;6.97;;
1811;SDS011;904;47.814;11.134;2023-03-12T08:22:51;8.05;;;6.25;;
1811;SDS011;904;47.814;11.134;2023-03-12T08:25:18;6.80;;;4.50;;
1811;SDS011;904;47.814;11.134;2023-03-12T08:27:48;6.55;;;4.72;;
1811;SDS011;904;47.814;11.134;2023-03-12T08:30:15;5.00;;;3.70;;
1811;SDS011;904;47.814;11.134;2023-03-12T08:32:42;4.80;;;3.33;;
1811;SDS011;904;47.814;11.134;2023-03-12T08:35:10;5.18;;;3.63;;
1811;SDS011;904;47.814;11.134;2023-03-12T08:37:40;4.28;;;3.55;;
1811;SDS011;904;47.814;11.134;2023-03-12T08:40:07;4.88;;;3.20;;
1811;SDS011;904;47.814;11.134;2023-03-12T08:42:37;4.82;;;3.25;;
1811;SDS011;904;47.814;11.134;2023-03-12T08:45:04;5.50;;;3.65;;
1811;SDS011;904;47.814;11.134;2023-03-12T08:47:32;6.35;;;4.22;;
1811;SDS011;904;47.814;11.134;2023-03-12T08:50:00;5.22;;;3.78;;
1811;SDS011;904;47.814;11.134;2023-03-12T08:52:27;6.97;;;5.35;;
1811;SDS011;904;47.814;11.134;2023-03-12T08:54:55;6.72;;;5.05;;
1811;SDS011;904;47.814;11.134;2023-03-12T08:57:22;8.38;;;6.07;;
1811;SDS011;904;47.814;11.134;2023-03-12T08:59:49;15.43;;;9.00;;
1811;SDS011;904;47.814;11.134;2023-03-12T09:02:25;15.43;;;6.18;;
1811;SDS011;904;47.814;11.134;2023-03-12T09:04:52;7.63;;;5.43;;
1811;SDS011;904;47.814;11.134;2023-03-12T09:07:19;6.88;;;4.97;;
1811;SDS011;904;47.814;11.134;2023-03-12T09:09:47;5.28;;;3.63;;
1811;SDS011;904;47.814;11.134;2023-03-12T09:12:15;5.70;;;3.88;;
1811;SDS011;904;47.814;11.134;2023-03-12T09:14:42;8.50;;;4.35;;
1811;SDS011;904;47.814;11.134;2023-03-12T09:17:09;5.43;;;3.83;;
1811;SDS011;904;47.814;11.134;2023-03-12T09:19:36;6.80;;;4.20;;
1811;SDS011;904;47.814;11.134;2023-03-12T09:22:04;6.32;;;4.70;;
1811;SDS011;904;47.814;11.134;2023-03-12T09:24:31;4.88;;;3.85;;
1811;SDS011;904;47.814;11.134;2023-03-12T09:26:59;9.82;;;4.22;;
1811;SDS011;904;47.814;11.134;2023-03-12T09:29:27;6.55;;;4.47;;
1811;SDS011;904;47.814;11.134;2023-03-12T09:31:55;5.30;;;4.45;;
1811;SDS011;904;47.814;11.134;2023-03-12T09:34:22;6.85;;;5.45;;
1811;SDS011;904;47.814;11.134;2023-03-12T09:36:49;5.20;;;4.03;;
1811;SDS011;904;47.814;11.134;2023-03-12T09:39:16;6.78;;;4.78;;
1811;SDS011;904;47.814;11.134;2023-03-12T09:41:48;7.28;;;4.55;;
1811;SDS011;904;47.814;11.134;2023-03-12T09:44:17;5.78;;;4.20;;
1811;SDS011;904;47.814;11.134;2023-03-12T09:46:57;5.25;;;4.07;;
1811;SDS011;904;47.814;11.134;2023-03-12T09:49:33;9.43;;;5.00;;
1811;SDS011;904;47.814;11.134;2023-03-12T09:52:07;9.10;;;4.50;;
1811;SDS011;904;47.814;11.134;2023-03-12T09:54:42;6.43;;;4.80;;
1811;SDS011;904;47.814;11.134;2023-03-12T09:57:15;5.63;;;4.40;;
1811;SDS011;904;47.814;11.134;2023-03-12T09:59:47;6.00;;;4.68;;
1811;SDS011;904;47.814;11.134;2023-03-12T10:02:23;6.40;;;4.03;;
1811;SDS011;904;47.814;11.134;2023-03-12T10:05:07;6.18;;;4.57;;
1811;SDS011;904;47.814;11.134;2023-03-12T10:07:42;5.22;;;4.30;;
1811;SDS011;904;47.814;11.134;2023-03-12T10:10:19;7.63;;;4.47;;
1811;SDS011;904;47.814;11.134;2023-03-12T10:13:14;8.48;;;5.53;;
1811;SDS011;904;47.814;11.134;2023-03-12T10:15:52;7.10;;;4.93;;
1811;SDS011;904;47.814;11.134;2023-03-12T10:18:41;7.53;;;4.55;;
1811;SDS011;904;47.814;11.134;2023-03-12T10:21:23;6.80;;;4.35;;
1811;SDS011;904;47.814;11.134;2023-03-12T10:23:59;6.97;;;5.30;;
1811;SDS011;904;47.814;11.134;2023-03-12T10:26:37;5.07;;;4.03;;
1811;SDS011;904;47.814;11.134;2023-03-12T10:29:12;6.90;;;4.13;;
1811;SDS011;904;47.814;11.134;2023-03-12T10:31:47;4.90;;;3.70;;
1811;SDS011;904;47.814;11.134;2023-03-12T10:34:22;4.97;;;4.05;;
1811;SDS011;904;47.814;11.134;2023-03-12T10:36:56;5.00;;;3.72;;
1811;SDS011;904;47.814;11.134;2023-03-12T10:39:26;8.27;;;5.45;;
1811;SDS011;904;47.814;11.134;2023-03-12T10:41:54;6.57;;;4.78;;
1811;SDS011;904;47.814;11.134;2023-03-12T10:44:23;4.57;;;4.10;;
1811;SDS011;904;47.814;11.134;2023-03-12T10:46:58;7.03;;;4.80;;
1811;SDS011;904;47.814;11.134;2023-03-12T10:49:34;6.07;;;4.60;;
1811;SDS011;904;47.814;11.134;2023-03-12T10:52:06;5.65;;;4.38;;
1811;SDS011;904;47.814;11.134;2023-03-12T10:54:45;6.30;;;4.20;;
1811;SDS011;904;47.814;11.134;2023-03-12T10:57:13;7.65;;;5.82;;
1811;SDS011;904;47.814;11.134;2023-03-12T10:59:48;5.80;;;4.45;;
1811;SDS011;904;47.814;11.134;2023-03-12T11:02:27;7.20;;;4.93;;
1811;SDS011;904;47.814;11.134;2023-03-12T11:04:58;5.38;;;4.07;;
1811;SDS011;904;47.814;11.134;2023-03-12T11:07:33;3.90;;;3.00;;
1811;SDS011;904;47.814;11.134;2023-03-12T11:10:12;4.27;;;3.13;;
1811;SDS011;904;47.814;11.134;2023-03-12T11:12:50;4.03;;;3.17;;
1811;SDS011;904;47.814;11.134;2023-03-12T11:15:26;3.27;;;2.33;;
1811;SDS011;904;47.814;11.134;2023-03-12T11:21:14;4.88;;;3.47;;
1811;SDS011;904;47.814;11.134;2023-03-12T11:23:45;4.10;;;3.00;;
1811;SDS011;904;47.814;11.134;2023-03-12T11:26:30;3.60;;;3.10;;
1811;SDS011;904;47.814;11.134;2023-03-12T11:29:00;3.10;;;1.73;;
1811;SDS011;904;47.814;11.134;2023-03-12T11:31:32;1.90;;;0.70;;
1811;SDS011;904;47.814;11.134;2023-03-12T11:34:07;2.20;;;1.00;;
1811;SDS011;904;47.814;11.134;2023-03-12T11:36:50;2.75;;;1.10;;
1811;SDS011;904;47.814;11.134;2023-03-12T11:39:28;1.90;;;0.90;;
1811;SDS011;904;47.814;11.134;2023-03-12T11:42:06;6.40;;;1.27;;
1811;SDS011;904;47.814;11.134;2023-03-12T11:44:49;2.40;;;0.90;;
1811;SDS011;904;47.814;11.134;2023-03-12T11:47:30;2.05;;;0.90;;
1811;SDS011;904;47.814;11.134;2023-03-12T11:50:16;2.77;;;1.00;;
1811;SDS011;904;47.814;11.134;2023-03-12T11:53:06;2.63;;;1.20;;
1811;SDS011;904;47.814;11.134;2023-03-12T11:55:56;2.13;;;1.10;;
1811;SDS011;904;47.814;11.134;2023-03-12T11:58:37;1.80;;;0.98;;
1811;SDS011;904;47.814;11.134;2023-03-12T12:01:35;2.67;;;1.10;;
1811;SDS011;904;47.814;11.134;2023-03-12T12:07:10;3.10;;;1.27;;
1811;SDS011;904;47.814;11.134;2023-03-12T12:09:47;3.47;;;0.95;;
1811;SDS011;904;47.814;11.134;2023-03-12T12:12:30;1.73;;;0.80;;
1811;SDS011;904;47.814;11.134;2023-03-12T12:15:12;2.15;;;1.25;;
1811;SDS011;904;47.814;11.134;2023-03-12T12:17:48;3.15;;;1.42;;
1811;SDS011;904;47.814;11.134;2023-03-12T12:20:27;1.90;;;1.00;;
1811;SDS011;904;47.814;11.134;2023-03-12T12:23:09;2.38;;;1.08;;
1811;SDS011;904;47.814;11.134;2023-03-12T12:25:59;3.38;;;1.60;;
1811;SDS011;904;47.814;11.134;2023-03-12T12:28:44;2.10;;;1.23;;
1811;SDS011;904;47.814;11.134;2023-03-12T12:31:28;5.63;;;1.50;;
1811;SDS011;904;47.814;11.134;2023-03-12T12:34:03;3.30;;;1.20;;
1811;SDS011;904;47.814;11.134;2023-03-12T12:36:51;8.82;;;4.85;;
1811;SDS011;904;47.814;11.134;2023-03-12T12:39:31;5.05;;;2.13;;
1811;SDS011;904;47.814;11.134;2023-03-12T12:42:03;2.25;;;1.00;;
1811;SDS011;904;47.814;11.134;2023-03-12T12:44:34;2.50;;;0.98;;
1811;SDS011;904;47.814;11.134;2023-03-12T12:47:08;3.97;;;1.10;;
1811;SDS011;904;47.814;11.134;2023-03-12T12:49:42;3.40;;;1.30;;
1811;SDS011;904;47.814;11.134;2023-03-12T12:52:12;2.95;;;1.50;;
1811;SDS011;904;47.814;11.134;2023-03-12T12:54:47;2.63;;;1.23;;
1811;SDS011;904;47.814;11.134;2023-03-12T12:57:22;2.80;;;1.13;;
1811;SDS011;904;47.814;11.134;2023-03-12T12:59:57;3.00;;;1.30;;
1811;SDS011;904;47.814;11.134;2023-03-12T13:02:36;2.53;;;1.00;;
1811;SDS011;904;47.814;11.134;2023-03-12T13:05:16;2.10;;;0.90;;
1811;SDS011;904;47.814;11.134;2023-03-12T13:07:46;2.63;;;0.87;;
1811;SDS011;904;47.814;11.134;2023-03-12T13:13:10;1.90;;;1.10;;
1811;SDS011;904;47.814;11.134;2023-03-12T13:15:48;4.23;;;1.10;;
1811;SDS011;904;47.814;11.134;2023-03-12T13:18:22;2.00;;;0.87;;
1811;SDS011;904;47.814;11.134;2023-03-12T13:21:05;2.00;;;1.00;;
1811;SDS011;904;47.814;11.134;2023-03-12T13:23:42;2.40;;;1.20;;
1811;SDS011;904;47.814;11.134;2023-03-12T13:26:20;2.47;;;1.17;;
1811;SDS011;904;47.814;11.134;2023-03-12T13:28:56;4.90;;;1.47;;
1811;SDS011;904;47.814;11.134;2023-03-12T13:31:32;2.17;;;0.97;;
1811;SDS011;904;47.814;11.134;2023-03-12T13:34:26;1.80;;;0.80;;
1811;SDS011;904;47.814;11.134;2023-03-12T13:37:21;2.00;;;1.00;;
1811;SDS011;904;47.814;11.134;2023-03-12T13:39:58;2.37;;;0.80;;
1811;SDS011;904;47.814;11.134;2023-03-12T13:42:38;1.77;;;0.83;;
1811;SDS011;904;47.814;11.134;2023-03-12T13:45:19;2.03;;;0.80;;
1811;SDS011;904;47.814;11.134;2023-03-12T13:47:51;1.70;;;0.80;;
1811;SDS011;904;47.814;11.134;2023-03-12T13:50:22;3.60;;;1.00;;
1811;SDS011;904;47.814;11.134;2023-03-12T13:52:54;2.75;;;0.80;;
1811;SDS011;904;47.814;11.134;2023-03-12T13:55:27;2.22;;;1.00;;
1811;SDS011;904;47.814;11.134;2023-03-12T13:57:56;1.80;;;0.60;;
1811;SDS011;904;47.814;11.134;2023-03-12T14:00:35;1.90;;;0.70;;
1811;SDS011;904;47.814;11.134;2023-03-12T14:03:10;3.00;;;1.05;;
1811;SDS011;904;47.814;11.134;2023-03-12T14:05:46;1.80;;;0.90;;
1811;SDS011;904;47.814;11.134;2023-03-12T14:08:26;1.60;;;0.70;;
1811;SDS011;904;47.814;11.134;2023-03-12T14:11:08;2.40;;;0.98;;
1811;SDS011;904;47.814;11.134;2023-03-12T14:14:02;2.25;;;0.80;;
1811;SDS011;904;47.814;11.134;2023-03-12T14:16:51;1.90;;;0.88;;
1811;SDS011;904;47.814;11.134;2023-03-12T14:19:22;1.70;;;0.70;;
1811;SDS011;904;47.814;11.134;2023-03-12T14:21:53;1.60;;;0.60;;
1811;SDS011;904;47.814;11.134;2023-03-12T14:24:24;1.80;;;0.70;;
1811;SDS011;904;47.814;11.134;2023-03-12T14:26:56;1.90;;;0.70;;
1811;SDS011;904;47.814;11.134;2023-03-12T14:29:26;1.90;;;0.80;;
1811;SDS011;904;47.814;11.134;2023-03-12T14:31:57;1.63;;;0.60;;
1811;SDS011;904;47.814;11.134;2023-03-12T14:34:29;1.60;;;0.60;;
1811;SDS011;904;47.814;11.134;2023-03-12T14:36:59;1.55;;;0.63;;
1811;SDS011;904;47.814;11.134;2023-03-12T14:39:32;1.50;;;0.60;;
1811;SDS011;904;47.814;11.134;2023-03-12T14:42:03;1.60;;;0.85;;
1811;SDS011;904;47.814;11.134;2023-03-12T14:44:32;1.70;;;0.80;;
1811;SDS011;904;47.814;11.134;2023-03-12T14:47:01;1.70;;;0.70;;
1811;SDS011;904;47.814;11.134;2023-03-12T14:49:37;1.50;;;0.63;;
1811;SDS011;904;47.814;11.134;2023-03-12T14:52:05;2.33;;;0.80;;
1811;SDS011;904;47.814;11.134;2023-03-12T14:54:34;2.45;;;0.68;;
1811;SDS011;904;47.814;11.134;2023-03-12T14:57:10;1.80;;;0.73;;
1811;SDS011;904;47.814;11.134;2023-03-12T14:59:39;1.60;;;0.70;;
1811;SDS011;904;47.814;11.134;2023-03-12T15:02:09;1.83;;;0.80;;
1811;SDS011;904;47.814;11.134;2023-03-12T15:04:41;1.88;;;0.85;;
1811;SDS011;904;47.814;11.134;2023-03-12T15:07:09;1.50;;;0.60;;
1811;SDS011;904;47.814;11.134;2023-03-12T15:09:41;3.53;;;0.88;;
1811;SDS011;904;47.814;11.134;2023-03-12T15:12:16;1.95;;;0.80;;
1811;SDS011;904;47.814;11.134;2023-03-12T15:14:44;1.80;;;0.80;;
1811;SDS011;904;47.814;11.134;2023-03-12T15:17:14;2.17;;;0.90;;
1811;SDS011;904;47.814;11.134;2023-03-12T15:19:43;1.90;;;0.75;;
1811;SDS011;904;47.814;11.134;2023-03-12T15:22:12;2.17;;;1.00;;
1811;SDS011;904;47.814;11.134;2023-03-12T15:24:47;2.20;;;1.10;;
1811;SDS011;904;47.814;11.134;2023-03-12T15:27:17;2.20;;;1.00;;
1811;SDS011;904;47.814;11.134;2023-03-12T15:29:56;2.50;;;1.20;;
1811;SDS011;904;47.814;11.134;2023-03-12T15:32:27;2.35;;;1.02;;
1811;SDS011;904;47.814;11.134;2023-03-12T15:34:55;4.28;;;2.13;;
1811;SDS011;904;47.814;11.134;2023-03-12T15:37:23;3.35;;;0.85;;
1811;SDS011;904;47.814;11.134;2023-03-12T15:40:03;2.25;;;0.80;;
1811;SDS011;904;47.814;11.134;2023-03-12T15:42:36;3.55;;;1.10;;
1811;SDS011;904;47.814;11.134;2023-03-12T15:45:08;3.35;;;1.05;;
1811;SDS011;904;47.814;11.134;2023-03-12T15:47:44;2.20;;;1.25;;
1811;SDS011;904;47.814;11.134;2023-03-12T15:50:16;3.20;;;1.02;;
1811;SDS011;904;47.814;11.134;2023-03-12T15:52:58;2.55;;;0.95;;
1811;SDS011;904;47.814;11.134;2023-03-12T15:55:29;2.20;;;0.93;;